Time;durP1;ratioP1;P1;durP2;ratioP2;P2;SDS_P1;SDS_P2;PMS_P1;PMS_P2;Temp;Humidity;BMP_temperature;BMP_pressure;BME280_temperature;BME280_humidity;BME280_pressure;Samples;Min_cycle;Max_cycle;Signal;HPM_P1;HPM_P2
2021/04/25 00:01:49;;;;;;;8.73;7.73;;;12.50;51.50;;;;;;5014239;28;20717;-69
2021/04/25 00:04:15;;;;;;;9.40;8.20;;;12.50;51.60;;;;;;5011571;28;20181;-69
2021/04/25 00:06:44;;;;;;;9.43;8.53;;;12.50;51.70;;;;;;5014720;28;20184;-67
2021/04/25 00:09:11;;;;;;;11.00;8.90;;;12.40;51.80;;;;;;5016829;28;20690;-70
2021/04/25 00:11:37;;;;;;;9.57;7.60;;;12.40;51.90;;;;;;5013954;28;20420;-70
2021/04/25 00:14:03;;;;;;;8.83;7.83;;;12.30;52.10;;;;;;5012320;28;20427;-69
2021/04/25 00:16:29;;;;;;;9.87;8.97;;;12.30;52.40;;;;;;5013288;28;20431;-70
2021/04/25 00:18:58;;;;;;;7.90;7.10;;;12.30;52.50;;;;;;5015245;28;20452;-69
2021/04/25 00:21:24;;;;;;;9.13;7.97;;;12.20;52.30;;;;;;5013941;28;20610;-68
2021/04/25 00:23:50;;;;;;;7.67;6.97;;;12.20;52.70;;;;;;5009246;28;20439;-68
2021/04/25 00:26:16;;;;;;;10.10;7.13;;;12.20;52.70;;;;;;5016872;28;20260;-71
2021/04/25 00:28:42;;;;;;;8.50;7.57;;;12.20;52.80;;;;;;5010600;28;20463;-68
2021/04/25 00:31:08;;;;;;;9.50;8.37;;;12.20;52.90;;;;;;5011235;28;20428;-69
2021/04/25 00:33:34;;;;;;;9.37;7.43;;;12.20;53.00;;;;;;5007582;28;20435;-69
2021/04/25 00:35:59;;;;;;;9.37;8.33;;;12.10;53.10;;;;;;5014342;28;20947;-67
2021/04/25 00:38:25;;;;;;;10.87;7.73;;;12.10;53.50;;;;;;5013562;28;20201;-71
2021/04/25 00:40:51;;;;;;;8.70;7.83;;;12.10;53.60;;;;;;5012245;28;20573;-69
2021/04/25 00:43:16;;;;;;;8.00;7.07;;;12.00;53.70;;;;;;5008656;28;20188;-69
2021/04/25 00:45:42;;;;;;;10.00;7.30;;;12.00;53.80;;;;;;5013804;28;20195;-70
2021/04/25 00:48:08;;;;;;;8.83;7.93;;;12.00;53.80;;;;;;5014362;28;20218;-69
2021/04/25 00:50:33;;;;;;;8.30;7.50;;;11.90;54.10;;;;;;5011637;28;20234;-69
2021/04/25 00:52:59;;;;;;;8.07;7.37;;;11.90;54.20;;;;;;5002347;28;20695;-68
2021/04/25 00:55:27;;;;;;;8.40;7.60;;;11.90;54.20;;;;;;5013474;28;20176;-69
2021/04/25 00:57:55;;;;;;;10.60;8.00;;;11.90;54.30;;;;;;5012200;28;20921;-68
2021/04/25 01:00:21;;;;;;;8.17;7.37;;;11.90;54.50;;;;;;5014957;28;20429;-69
2021/04/25 01:02:47;;;;;;;9.87;8.17;;;11.80;54.60;;;;;;5015222;28;20434;-68
2021/04/25 01:05:16;;;;;;;9.60;7.97;;;11.80;54.90;;;;;;5017374;28;20427;-69
2021/04/25 01:07:42;;;;;;;8.60;7.70;;;11.70;54.80;;;;;;5011447;28;20518;-70
2021/04/25 01:10:10;;;;;;;11.07;7.83;;;11.70;55.20;;;;;;5023713;28;21602;-68
2021/04/25 01:12:37;;;;;;;8.20;7.40;;;11.60;55.30;;;;;;5020071;28;20229;-69
2021/04/25 01:15:03;;;;;;;8.40;7.50;;;11.60;55.40;;;;;;5014038;28;20830;-70
2021/04/25 01:17:28;;;;;;;9.80;7.60;;;11.50;55.50;;;;;;5011973;28;20947;-68
2021/04/25 01:19:57;;;;;;;8.37;7.67;;;11.50;55.70;;;;;;5016175;28;20432;-68
2021/04/25 01:22:23;;;;;;;7.80;7.00;;;11.40;55.80;;;;;;5015145;28;20185;-70
2021/04/25 01:24:50;;;;;;;7.87;7.10;;;11.40;56.00;;;;;;5012501;28;20522;-69
2021/04/25 01:27:15;;;;;;;7.53;6.77;;;11.40;56.00;;;;;;5015526;28;20256;-68
2021/04/25 01:29:41;;;;;;;9.00;8.10;;;11.40;56.00;;;;;;5009465;28;20550;-68
2021/04/25 01:32:08;;;;;;;9.80;7.60;;;11.30;56.80;;;;;;5015335;28;20788;-69
2021/04/25 01:34:34;;;;;;;8.53;7.37;;;11.30;56.50;;;;;;5011282;28;20187;-69
2021/04/25 01:37:00;;;;;;;8.20;7.50;;;11.30;56.60;;;;;;5019372;28;20425;-69
2021/04/25 01:39:29;;;;;;;8.87;7.97;;;11.30;57.00;;;;;;5018130;28;20220;-69
2021/04/25 01:41:54;;;;;;;13.70;8.30;;;11.20;57.10;;;;;;5012536;28;20606;-68
2021/04/25 01:44:20;;;;;;;9.20;8.30;;;11.20;57.40;;;;;;5013636;28;20482;-68
2021/04/25 01:46:46;;;;;;;10.87;7.63;;;11.20;57.40;;;;;;5010822;28;20193;-69
2021/04/25 01:49:13;;;;;;;13.30;7.90;;;11.20;57.70;;;;;;5011095;28;20316;-69
2021/04/25 01:51:40;;;;;;;9.50;8.13;;;11.10;57.90;;;;;;5015333;28;20177;-70
2021/04/25 01:54:06;;;;;;;10.60;8.03;;;11.10;58.10;;;;;;5020531;28;20424;-67
2021/04/25 01:56:33;;;;;;;11.30;8.30;;;11.10;58.30;;;;;;5017896;28;20436;-68
2021/04/25 01:58:58;;;;;;;22.60;8.40;;;11.00;58.50;;;;;;5015586;28;20525;-68
2021/04/25 02:01:25;;;;;;;11.60;7.77;;;11.00;59.30;;;;;;5017100;28;20484;-68
2021/04/25 02:03:51;;;;;;;8.87;8.00;;;11.00;59.00;;;;;;5012898;28;20827;-68
2021/04/25 02:06:17;;;;;;;9.10;8.30;;;10.90;59.30;;;;;;5015174;28;20427;-69
2021/04/25 02:08:42;;;;;;;11.63;8.07;;;10.90;59.60;;;;;;5012733;28;21021;-68
2021/04/25 02:11:08;;;;;;;8.63;7.83;;;10.90;59.90;;;;;;5021829;28;20280;-68
2021/04/25 02:13:34;;;;;;;9.23;8.23;;;10.90;60.70;;;;;;5015247;28;20712;-69
2021/04/25 02:15:59;;;;;;;10.90;7.87;;;10.90;60.70;;;;;;5014354;28;20185;-69
2021/04/25 02:18:25;;;;;;;10.60;8.53;;;10.90;61.30;;;;;;5014086;28;20255;-69
2021/04/25 02:20:50;;;;;;;9.83;8.00;;;10.80;61.80;;;;;;5011827;28;20607;-67
2021/04/25 02:23:16;;;;;;;14.60;7.97;;;10.80;61.90;;;;;;5010475;28;20217;-68
2021/04/25 02:25:42;;;;;;;8.13;7.43;;;10.80;62.20;;;;;;5012901;28;20192;-68
2021/04/25 02:28:07;;;;;;;10.23;9.03;;;10.70;62.80;;;;;;5015011;28;20209;-69
2021/04/25 02:30:35;;;;;;;9.63;8.50;;;10.70;63.80;;;;;;5009808;28;20448;-69
2021/04/25 02:33:01;;;;;;;9.20;8.03;;;10.70;64.40;;;;;;5015844;28;20177;-69
2021/04/25 02:35:28;;;;;;;10.90;7.77;;;10.60;65.30;;;;;;5012855;28;20447;-69
2021/04/25 02:37:55;;;;;;;10.30;7.90;;;10.60;66.00;;;;;;5012067;28;20503;-69
2021/04/25 02:40:24;;;;;;;9.37;8.40;;;10.60;66.80;;;;;;5016186;28;21104;-69
2021/04/25 02:42:51;;;;;;;12.50;8.33;;;10.60;67.60;;;;;;5012615;28;20440;-68
2021/04/25 02:45:18;;;;;;;12.13;9.13;;;10.60;68.70;;;;;;5009991;28;20668;-68
2021/04/25 02:48:05;;;;;;;9.20;8.13;;;10.50;70.60;;;;;;5014405;28;20432;-69
2021/04/25 02:50:36;;;;;;;8.43;7.50;;;10.50;70.70;;;;;;5013685;28;20467;-69
2021/04/25 02:53:02;;;;;;;9.23;8.07;;;10.50;71.60;;;;;;5012071;28;20412;-69
2021/04/25 02:55:28;;;;;;;10.57;9.40;;;10.40;72.30;;;;;;5016193;28;20476;-69
2021/04/25 02:57:54;;;;;;;8.87;8.07;;;10.30;73.40;;;;;;5010826;28;20462;-69
2021/04/25 03:00:25;;;;;;;9.87;8.23;;;10.30;75.10;;;;;;5005781;28;20856;-69
2021/04/25 03:02:51;;;;;;;11.23;8.87;;;10.20;76.70;;;;;;5009474;28;20188;-70
2021/04/25 03:05:17;;;;;;;8.90;8.10;;;10.30;77.40;;;;;;5012822;28;20770;-70
2021/04/25 03:07:46;;;;;;;8.70;7.83;;;10.20;78.40;;;;;;5016844;28;20447;-69
2021/04/25 03:10:14;;;;;;;9.47;8.30;;;10.10;79.40;;;;;;5014436;28;20471;-69
2021/04/25 03:12:40;;;;;;;9.27;8.37;;;10.10;80.60;;;;;;5007390;28;20761;-70
2021/04/25 03:15:08;;;;;;;8.90;7.60;;;10.10;81.80;;;;;;5018193;28;20933;-69
2021/04/25 03:17:33;;;;;;;11.30;7.83;;;10.10;82.70;;;;;;5015602;28;20439;-69
2021/04/25 03:20:00;;;;;;;14.33;7.67;;;10.10;83.70;;;;;;5012179;28;20432;-69
2021/04/25 03:22:25;;;;;;;9.73;8.73;;;10.00;85.00;;;;;;5013853;28;20190;-69
2021/04/25 03:24:51;;;;;;;9.90;8.40;;;10.00;86.10;;;;;;5011668;28;20471;-69
2021/04/25 03:27:17;;;;;;;9.13;7.90;;;10.00;87.40;;;;;;5012014;28;20184;-68
2021/04/25 03:29:42;;;;;;;9.20;8.30;;;10.00;89.00;;;;;;5010424;28;20703;-68
2021/04/25 03:32:08;;;;;;;8.97;8.17;;;9.90;90.80;;;;;;5003562;28;20182;-72
2021/04/25 03:34:34;;;;;;;9.60;7.50;;;9.90;91.40;;;;;;5011243;28;20173;-71
2021/04/25 03:36:59;;;;;;;10.60;8.90;;;9.80;92.00;;;;;;5014801;28;20185;-68
2021/04/25 03:39:25;;;;;;;11.73;8.93;;;9.80;93.00;;;;;;5012287;28;20204;-68
2021/04/25 03:41:51;;;;;;;11.10;8.33;;;9.70;94.10;;;;;;5010048;28;20200;-67
2021/04/25 03:44:17;;;;;;;9.33;8.43;;;9.70;94.40;;;;;;5014817;28;20193;-68
2021/04/25 03:46:43;;;;;;;12.93;8.70;;;9.70;94.80;;;;;;5014374;28;20213;-68
2021/04/25 03:49:09;;;;;;;10.00;8.73;;;9.70;95.60;;;;;;5011428;28;21012;-69
2021/04/25 03:51:35;;;;;;;10.30;9.20;;;9.60;96.20;;;;;;5011129;28;20468;-69
2021/04/25 03:54:01;;;;;;;9.30;8.30;;;9.70;96.50;;;;;;5016507;28;20431;-71
2021/04/25 03:56:27;;;;;;;8.77;7.90;;;9.60;97.40;;;;;;5014276;28;20494;-68
2021/04/25 03:58:52;;;;;;;9.33;8.43;;;9.60;98.00;;;;;;5016975;28;22271;-70
2021/04/25 04:01:18;;;;;;;9.70;8.80;;;9.60;98.40;;;;;;5021532;28;20224;-68
2021/04/25 04:03:44;;;;;;;10.40;8.63;;;9.60;99.10;;;;;;5015527;28;20181;-69
2021/04/25 04:06:10;;;;;;;10.13;9.10;;;9.50;99.60;;;;;;5014455;28;20216;-69
2021/04/25 04:08:38;;;;;;;9.67;8.70;;;9.50;99.90;;;;;;5012799;28;20275;-69
2021/04/25 04:11:04;;;;;;;9.00;8.10;;;9.40;99.90;;;;;;5008250;28;20193;-70
2021/04/25 04:13:30;;;;;;;8.73;7.83;;;9.40;99.90;;;;;;5013997;28;20427;-69
2021/04/25 04:15:56;;;;;;;10.20;8.50;;;9.40;99.90;;;;;;5009801;28;20207;-68
2021/04/25 04:18:21;;;;;;;9.47;8.00;;;9.30;99.90;;;;;;5017397;28;21032;-68
2021/04/25 04:20:47;;;;;;;12.50;8.50;;;9.30;99.90;;;;;;5016969;28;20839;-68
2021/04/25 04:23:13;;;;;;;9.10;7.43;;;9.30;99.90;;;;;;5013192;28;20197;-69
2021/04/25 04:25:39;;;;;;;8.70;7.80;;;9.30;99.90;;;;;;5012918;28;20788;-70
2021/04/25 04:28:04;;;;;;;12.40;8.50;;;9.20;99.90;;;;;;5012133;28;20435;-69
2021/04/25 04:30:30;;;;;;;8.30;7.43;;;9.20;99.90;;;;;;5016532;28;20217;-68
2021/04/25 04:32:56;;;;;;;9.10;8.20;;;9.20;99.90;;;;;;5015695;28;20208;-68
2021/04/25 04:35:22;;;;;;;7.73;7.00;;;9.10;99.90;;;;;;5011407;28;20854;-69
2021/04/25 04:37:47;;;;;;;7.87;7.07;;;9.10;99.90;;;;;;5013616;28;20208;-69
2021/04/25 04:40:14;;;;;;;8.00;7.30;;;9.00;99.90;;;;;;5012232;28;20460;-69
2021/04/25 04:42:39;;;;;;;10.53;7.73;;;9.10;99.90;;;;;;5004352;28;20256;-70
2021/04/25 04:45:05;;;;;;;9.20;8.23;;;9.10;99.90;;;;;;5006057;28;20447;-67
2021/04/25 04:47:31;;;;;;;9.33;7.67;;;9.10;99.90;;;;;;5000432;28;20186;-67
2021/04/25 04:49:56;;;;;;;13.80;8.20;;;9.10;99.90;;;;;;5003875;28;20499;-69
2021/04/25 04:52:22;;;;;;;10.43;8.17;;;9.10;99.90;;;;;;5005396;28;20239;-69
2021/04/25 04:54:48;;;;;;;10.03;8.37;;;9.10;99.90;;;;;;5004739;28;20185;-68
2021/04/25 04:57:15;;;;;;;9.70;7.73;;;9.10;99.90;;;;;;5008231;28;20597;-69
2021/04/25 04:59:41;;;;;;;11.00;8.43;;;9.20;99.90;;;;;;5005506;28;20476;-68
2021/04/25 05:02:07;;;;;;;9.43;8.50;;;9.20;99.90;;;;;;5003005;28;20440;-69
2021/04/25 05:04:33;;;;;;;9.17;8.27;;;9.20;99.90;;;;;;5005034;28;20440;-69
2021/04/25 05:06:58;;;;;;;10.90;8.07;;;9.10;99.90;;;;;;5008351;28;20216;-68
2021/04/25 05:09:24;;;;;;;11.10;8.33;;;9.10;99.90;;;;;;5000395;28;20235;-68
2021/04/25 05:11:50;;;;;;;8.90;8.10;;;9.10;99.90;;;;;;5002719;28;20328;-68
2021/04/25 05:14:15;;;;;;;10.93;8.60;;;9.10;99.90;;;;;;5011292;28;20607;-70
2021/04/25 05:16:41;;;;;;;10.73;8.50;;;9.20;99.90;;;;;;5004650;28;20612;-69
2021/04/25 05:19:06;;;;;;;10.43;9.43;;;9.20;99.90;;;;;;5005612;28;20294;-69
2021/04/25 05:21:32;;;;;;;14.60;9.40;;;9.20;99.90;;;;;;5001623;28;20204;-68
2021/04/25 05:23:58;;;;;;;9.60;8.60;;;9.20;99.90;;;;;;5008074;28;20181;-67
2021/04/25 05:26:23;;;;;;;13.57;9.33;;;9.20;99.90;;;;;;5006122;28;20201;-67
2021/04/25 05:28:49;;;;;;;14.67;8.40;;;9.30;99.90;;;;;;5001208;28;20249;-67
2021/04/25 05:31:14;;;;;;;9.03;7.97;;;9.30;99.90;;;;;;5005482;28;20275;-68
2021/04/25 05:33:40;;;;;;;11.17;8.80;;;9.20;99.90;;;;;;5004343;28;20648;-69
2021/04/25 05:36:06;;;;;;;10.30;8.50;;;9.30;99.90;;;;;;5001159;28;20186;-69
2021/04/25 05:38:31;;;;;;;10.93;7.93;;;9.30;99.90;;;;;;5009148;28;20315;-68
2021/04/25 05:40:57;;;;;;;9.93;8.00;;;9.30;99.90;;;;;;5005210;28;20452;-68
2021/04/25 05:43:23;;;;;;;10.13;8.40;;;9.30;99.90;;;;;;5002133;28;20300;-70
2021/04/25 05:45:48;;;;;;;8.37;7.50;;;9.40;99.90;;;;;;5004108;28;20199;-70
2021/04/25 05:48:14;;;;;;;9.70;8.70;;;9.40;99.90;;;;;;5006611;28;20208;-69
2021/04/25 05:50:40;;;;;;;9.30;8.20;;;9.50;99.90;;;;;;5004861;28;20267;-69
2021/04/25 05:53:05;;;;;;;9.83;8.40;;;9.50;99.90;;;;;;5007352;28;20178;-69
2021/04/25 05:55:31;;;;;;;13.07;8.83;;;9.50;99.90;;;;;;5014321;28;20193;-68
2021/04/25 05:57:56;;;;;;;9.83;8.10;;;9.50;99.90;;;;;;5007737;28;20212;-68
2021/04/25 06:00:24;;;;;;;11.60;9.47;;;9.60;99.90;;;;;;5006738;28;20909;-70
2021/04/25 06:02:51;;;;;;;9.60;8.10;;;9.60;99.90;;;;;;5005251;28;20636;-68
2021/04/25 06:05:17;;;;;;;11.27;9.30;;;9.70;99.90;;;;;;5006090;28;20489;-68
2021/04/25 06:07:42;;;;;;;10.80;9.00;;;9.70;99.90;;;;;;5015270;28;20991;-69
2021/04/25 06:10:09;;;;;;;12.60;9.50;;;9.70;99.90;;;;;;5005328;28;20463;-70
2021/04/25 06:12:35;;;;;;;12.73;9.43;;;9.70;99.90;;;;;;5008546;28;20539;-69
2021/04/25 06:15:01;;;;;;;13.23;10.30;;;9.80;99.90;;;;;;5008378;28;20437;-69
2021/04/25 06:17:26;;;;;;;11.93;9.20;;;9.70;99.90;;;;;;5003425;28;20178;-68
2021/04/25 06:19:52;;;;;;;12.17;9.97;;;9.80;99.90;;;;;;5002544;28;20586;-69
2021/04/25 06:22:18;;;;;;;12.50;10.77;;;9.90;99.90;;;;;;5008892;28;20676;-68
2021/04/25 06:24:44;;;;;;;11.43;9.97;;;9.90;99.90;;;;;;5009414;28;20189;-68
2021/04/25 06:27:09;;;;;;;16.20;11.07;;;9.90;99.90;;;;;;5006866;28;20471;-68
2021/04/25 06:29:35;;;;;;;10.80;8.47;;;9.90;99.90;;;;;;5013410;28;20205;-67
2021/04/25 06:32:01;;;;;;;10.30;9.20;;;9.90;99.90;;;;;;5008639;28;20559;-68
2021/04/25 06:34:27;;;;;;;10.67;9.20;;;10.00;99.90;;;;;;5016354;28;20177;-68
2021/04/25 06:36:52;;;;;;;14.13;10.50;;;10.00;99.90;;;;;;5005618;28;20447;-69
2021/04/25 06:39:18;;;;;;;9.90;8.90;;;10.10;99.90;;;;;;5009892;28;20917;-71
2021/04/25 06:41:44;;;;;;;11.30;9.20;;;10.20;99.90;;;;;;5005404;28;20201;-70
2021/04/25 06:44:10;;;;;;;10.93;9.60;;;10.40;99.90;;;;;;5003630;28;20674;-68
2021/04/25 06:46:36;;;;;;;9.63;8.73;;;10.40;99.90;;;;;;5010833;28;20432;-69
2021/04/25 06:49:02;;;;;;;19.73;9.47;;;10.50;99.90;;;;;;5005438;28;20635;-68
2021/04/25 06:51:28;;;;;;;10.83;9.83;;;10.50;99.90;;;;;;5002330;28;20247;-69
2021/04/25 06:53:54;;;;;;;10.63;9.23;;;10.50;99.90;;;;;;5004306;28;20443;-69
2021/04/25 06:56:20;;;;;;;10.83;8.50;;;10.50;99.90;;;;;;5006292;28;20186;-68
2021/04/25 06:58:45;;;;;;;10.10;8.93;;;10.60;99.90;;;;;;5007105;28;20546;-68
2021/04/25 07:01:11;;;;;;;12.03;9.70;;;10.60;99.90;;;;;;5005855;28;20647;-71
2021/04/25 07:03:38;;;;;;;12.87;9.57;;;10.60;99.90;;;;;;5006102;28;20288;-69
2021/04/25 07:06:04;;;;;;;11.63;8.90;;;10.80;99.90;;;;;;5006929;28;20680;-69
2021/04/25 07:08:30;;;;;;;10.63;9.27;;;10.90;99.90;;;;;;5006194;28;20485;-69
2021/04/25 07:10:55;;;;;;;11.33;9.40;;;10.80;99.90;;;;;;5008745;28;20440;-70
2021/04/25 07:13:21;;;;;;;10.63;9.00;;;11.00;99.90;;;;;;5008141;28;20188;-68
2021/04/25 07:15:48;;;;;;;10.67;9.60;;;11.00;99.90;;;;;;5005458;28;20690;-71
2021/04/25 07:18:14;;;;;;;9.50;8.60;;;11.00;99.90;;;;;;5005454;28;20436;-69
2021/04/25 07:20:40;;;;;;;10.67;9.67;;;11.20;99.90;;;;;;5000191;28;20440;-68
2021/04/25 07:23:05;;;;;;;10.93;9.77;;;11.30;99.90;;;;;;5011102;28;20197;-69
2021/04/25 07:25:31;;;;;;;11.93;9.57;;;11.40;99.90;;;;;;5014292;28;20292;-68
2021/04/25 07:27:57;;;;;;;11.40;10.30;;;11.50;99.90;;;;;;5011494;28;20213;-68
2021/04/25 07:30:23;;;;;;;10.60;9.33;;;11.60;99.90;;;;;;5011751;28;20463;-70
2021/04/25 07:32:49;;;;;;;12.60;9.80;;;11.60;99.60;;;;;;5012793;28;20189;-68
2021/04/25 07:35:15;;;;;;;10.50;9.50;;;11.50;99.10;;;;;;5016440;28;21177;-68
2021/04/25 07:37:41;;;;;;;10.20;9.20;;;11.70;99.00;;;;;;5014205;28;20202;-69
2021/04/25 07:40:08;;;;;;;12.60;10.10;;;11.90;98.40;;;;;;5013146;28;20459;-70
2021/04/25 07:42:34;;;;;;;12.53;10.13;;;12.00;98.00;;;;;;5016684;28;20286;-69
2021/04/25 07:45:00;;;;;;;11.17;10.07;;;12.10;97.20;;;;;;5014617;28;21245;-68
2021/04/25 07:47:25;;;;;;;10.43;9.50;;;12.10;96.70;;;;;;5017340;28;20538;-69
2021/04/25 07:49:51;;;;;;;14.13;9.40;;;12.20;96.70;;;;;;5005261;28;20213;-69
2021/04/25 07:52:17;;;;;;;11.40;9.30;;;12.30;96.60;;;;;;5014859;28;20176;-70
2021/04/25 07:54:42;;;;;;;11.23;9.73;;;12.40;96.20;;;;;;5007447;28;20189;-69
2021/04/25 07:57:09;;;;;;;11.27;9.90;;;12.50;95.70;;;;;;5012878;28;20188;-69
2021/04/25 07:59:34;;;;;;;11.43;10.20;;;12.70;95.30;;;;;;5011135;28;20212;-71
2021/04/25 08:02:00;;;;;;;10.17;9.23;;;12.60;95.10;;;;;;5015759;28;20961;-69
2021/04/25 08:04:26;;;;;;;10.80;9.20;;;12.60;94.80;;;;;;5005626;28;20212;-69
2021/04/25 08:06:51;;;;;;;11.60;9.40;;;12.80;94.80;;;;;;5011356;28;20324;-70
2021/04/25 08:09:17;;;;;;;11.60;10.47;;;13.00;96.00;;;;;;5013721;28;20227;-72
2021/04/25 08:11:43;;;;;;;11.60;10.40;;;13.30;95.00;;;;;;5009959;28;20592;-70
2021/04/25 08:14:08;;;;;;;11.70;10.60;;;13.50;94.00;;;;;;5014699;28;20619;-70
2021/04/25 08:16:34;;;;;;;10.37;9.37;;;13.60;93.50;;;;;;5012823;28;20239;-70
2021/04/25 08:19:00;;;;;;;11.00;10.00;;;13.80;92.50;;;;;;5012740;28;20659;-71
2021/04/25 08:21:30;;;;;;;12.57;10.43;;;13.90;91.50;;;;;;5010983;28;20215;-68
2021/04/25 08:23:56;;;;;;;11.33;9.20;;;13.80;91.30;;;;;;5009872;28;20312;-68
2021/04/25 08:26:22;;;;;;;12.50;10.00;;;13.80;91.40;;;;;;5008400;28;20525;-69
2021/04/25 08:28:48;;;;;;;14.30;9.90;;;13.70;90.80;;;;;;5015004;28;20220;-67
2021/04/25 08:31:13;;;;;;;10.53;9.63;;;13.90;90.80;;;;;;5012661;28;20446;-68
2021/04/25 08:33:39;;;;;;;11.43;10.40;;;14.00;90.20;;;;;;5010765;28;20224;-70
2021/04/25 08:36:06;;;;;;;11.67;10.13;;;14.10;90.20;;;;;;5009806;28;20184;-71
2021/04/25 08:38:32;;;;;;;11.50;10.40;;;13.90;89.90;;;;;;5013606;28;20212;-70
2021/04/25 08:41:01;;;;;;;11.50;10.30;;;13.80;90.00;;;;;;5016297;28;20987;-70
2021/04/25 08:43:27;;;;;;;13.33;10.43;;;13.90;90.00;;;;;;5004830;28;20436;-69
2021/04/25 08:45:53;;;;;;;11.10;10.07;;;14.10;90.00;;;;;;5008421;28;20419;-70
2021/04/25 08:48:25;;;;;;;11.83;10.73;;;14.30;88.70;;;;;;5008171;28;21123;-70
2021/04/25 08:50:51;;;;;;;12.90;11.07;;;14.50;87.30;;;;;;5007133;28;20451;-72
2021/04/25 08:53:20;;;;;;;13.70;10.80;;;14.70;87.20;;;;;;5001817;28;21107;-69
2021/04/25 08:55:46;;;;;;;11.20;10.07;;;14.90;86.70;;;;;;5002430;28;20531;-70
2021/04/25 08:58:12;;;;;;;11.80;10.63;;;15.00;86.30;;;;;;5010470;28;20545;-72
2021/04/25 09:00:38;;;;;;;9.97;9.17;;;15.20;85.00;;;;;;5015031;28;20539;-70
2021/04/25 09:03:04;;;;;;;11.30;10.10;;;15.30;83.90;;;;;;5005979;28;20528;-69
2021/04/25 09:05:31;;;;;;;10.67;9.60;;;15.50;83.10;;;;;;5005048;28;20455;-70
2021/04/25 09:08:00;;;;;;;11.30;10.10;;;15.60;82.60;;;;;;5009256;28;20205;-70
2021/04/25 09:10:29;;;;;;;12.17;10.60;;;15.60;80.50;;;;;;5004782;28;20520;-70
2021/04/25 09:12:56;;;;;;;12.93;11.67;;;15.70;80.00;;;;;;5005514;28;20448;-70
2021/04/25 09:15:21;;;;;;;11.27;10.17;;;15.60;78.50;;;;;;5008598;28;20481;-69
2021/04/25 09:18:01;;;;;;;12.20;10.53;;;15.80;78.10;;;;;;5008591;28;20554;-70
2021/04/25 09:20:39;;;;;;;17.50;10.60;;;15.90;76.90;;;;;;5005295;28;20190;-69
2021/04/25 09:23:09;;;;;;;10.77;9.67;;;16.10;77.00;;;;;;5009503;28;20428;-69
2021/04/25 09:25:36;;;;;;;10.63;9.67;;;16.20;77.10;;;;;;5009510;28;20444;-68
2021/04/25 09:28:11;;;;;;;12.63;10.10;;;16.50;77.00;;;;;;5007266;28;20938;-70
2021/04/25 09:30:38;;;;;;;14.53;11.07;;;16.70;75.70;;;;;;5020698;28;20880;-69
2021/04/25 09:33:10;;;;;;;10.30;9.30;;;16.90;73.70;;;;;;5011579;28;20455;-69
2021/04/25 09:35:37;;;;;;;10.90;9.37;;;17.10;72.90;;;;;;5005220;28;20425;-69
2021/04/25 09:38:11;;;;;;;12.53;11.23;;;17.40;71.20;;;;;;5016908;28;20462;-71
2021/04/25 09:40:50;;;;;;;11.37;10.37;;;17.80;70.10;;;;;;5005842;28;21158;-71
2021/04/25 09:43:20;;;;;;;9.90;9.10;;;18.00;66.90;;;;;;5005869;28;20446;-70
2021/04/25 09:45:45;;;;;;;10.10;9.10;;;18.50;66.00;;;;;;5011366;28;20523;-69
2021/04/25 09:48:29;;;;;;;10.27;9.27;;;19.40;63.50;;;;;;5011097;28;21082;-70
2021/04/25 09:51:23;;;;;;;10.13;9.10;;;20.00;59.30;;;;;;5007572;28;20216;-70
2021/04/25 09:53:52;;;;;;;10.23;9.33;;;20.70;57.30;;;;;;5014191;28;20427;-71
2021/04/25 09:56:38;;;;;;;11.40;10.20;;;21.40;54.70;;;;;;5012776;28;20469;-68
2021/04/25 09:59:05;;;;;;;10.40;9.33;;;22.10;52.70;;;;;;5007134;28;20470;-70
2021/04/25 10:01:37;;;;;;;12.73;9.77;;;22.40;51.20;;;;;;5011516;28;20541;-70
2021/04/25 10:04:22;;;;;;;10.90;9.73;;;22.90;50.60;;;;;;5004971;28;20515;-69
2021/04/25 10:06:50;;;;;;;10.50;9.60;;;23.50;48.40;;;;;;5009073;28;20424;-71
2021/04/25 10:09:19;;;;;;;10.37;9.47;;;24.00;46.60;;;;;;5007513;28;20483;-71
2021/04/25 10:11:45;;;;;;;11.40;10.30;;;23.90;45.60;;;;;;5007712;28;20435;-74
2021/04/25 10:14:14;;;;;;;10.50;9.37;;;24.00;44.80;;;;;;5010294;28;20498;-71
2021/04/25 10:16:42;;;;;;;10.77;9.77;;;23.70;44.00;;;;;;5006285;28;20220;-68
2021/04/25 10:19:08;;;;;;;10.10;9.20;;;23.60;43.80;;;;;;5014187;28;20452;-69
2021/04/25 10:21:35;;;;;;;10.60;9.63;;;23.70;43.60;;;;;;5011299;28;20559;-69
2021/04/25 10:24:03;;;;;;;9.03;8.33;;;24.20;43.70;;;;;;5011565;28;20424;-71
2021/04/25 10:26:54;;;;;;;9.93;8.33;;;24.70;43.20;;;;;;5018153;28;20430;-70
2021/04/25 10:29:34;;;;;;;10.00;9.20;;;25.30;42.60;;;;;;5012009;28;20463;-68
2021/04/25 10:32:03;;;;;;;11.77;9.63;;;25.00;40.80;;;;;;5008398;28;20427;-69
2021/04/25 10:34:29;;;;;;;10.27;9.27;;;24.00;40.50;;;;;;5007708;28;20432;-69
2021/04/25 10:36:57;;;;;;;10.23;9.33;;;23.50;41.40;;;;;;5004517;28;20427;-68
2021/04/25 10:39:38;;;;;;;9.03;8.33;;;23.10;41.60;;;;;;5010162;28;20523;-71
2021/04/25 10:42:25;;;;;;;8.60;7.90;;;22.70;41.70;;;;;;5010139;28;20424;-69
2021/04/25 10:44:57;;;;;;;9.27;8.57;;;22.50;41.70;;;;;;5005110;28;20455;-69
2021/04/25 10:47:24;;;;;;;10.90;9.90;;;22.50;41.90;;;;;;5006921;28;20978;-70
2021/04/25 10:49:50;;;;;;;9.77;8.77;;;22.90;42.30;;;;;;5015633;28;20463;-68
2021/04/25 10:52:25;;;;;;;10.50;9.40;;;23.70;41.40;;;;;;5012057;28;21291;-69
2021/04/25 10:55:13;;;;;;;11.87;10.23;;;25.00;40.70;;;;;;5008329;28;20185;-68
2021/04/25 10:57:54;;;;;;;9.80;9.00;;;25.60;38.90;;;;;;5007458;28;20459;-67
2021/04/25 11:00:36;;;;;;;9.57;8.77;;;27.30;36.90;;;;;;5014641;28;20416;-68
2021/04/25 11:03:15;;;;;;;18.73;14.13;;;29.50;36.00;;;;;;5011583;28;20518;-68
2021/04/25 11:05:46;;;;;;;10.37;9.23;;;31.50;34.00;;;;;;5010225;28;20541;-70
2021/04/25 11:08:15;;;;;;;10.17;8.43;;;33.30;31.90;;;;;;5007045;28;20490;-67
2021/04/25 11:11:02;;;;;;;8.63;7.80;;;34.50;29.10;;;;;;5009258;28;20686;-69
2021/04/25 11:13:45;;;;;;;10.27;9.50;;;35.80;28.80;;;;;;5000163;28;20444;-69
2021/04/25 11:16:17;;;;;;;9.27;8.53;;;37.10;27.10;;;;;;5009624;28;20523;-69
2021/04/25 11:18:43;;;;;;;9.20;8.50;;;38.10;26.10;;;;;;5011463;28;20510;-70
2021/04/25 11:21:34;;;;;;;9.30;8.60;;;39.60;24.80;;;;;;5009641;28;20508;-69
2021/04/25 11:24:06;;;;;;;8.77;8.00;;;40.80;24.10;;;;;;5027094;28;20395;-70
2021/04/25 11:26:42;;;;;;;9.30;8.50;;;42.00;23.20;;;;;;5010406;28;20412;-69
2021/04/25 11:29:40;;;;;;;7.97;7.43;;;42.60;22.40;;;;;;5008244;28;20518;-69
2021/04/25 11:32:05;;;;;;;7.77;7.33;;;43.70;21.20;;;;;;5001476;28;20494;-68
2021/04/25 11:34:31;;;;;;;8.57;7.97;;;44.50;20.80;;;;;;5014030;28;20632;-68
2021/04/25 11:37:17;;;;;;;8.63;7.93;;;44.90;20.40;;;;;;5004661;28;20173;-70
2021/04/25 11:40:06;;;;;;;8.60;8.03;;;44.80;20.00;;;;;;5005532;28;20409;-70
2021/04/25 11:42:50;;;;;;;8.60;8.00;;;45.00;19.90;;;;;;5010047;28;20437;-70
2021/04/25 11:45:26;;;;;;;8.40;7.83;;;45.10;19.40;;;;;;5014916;28;20426;-69
2021/04/25 11:48:01;;;;;;;7.73;7.27;;;45.10;19.20;;;;;;5009230;28;20454;-71
2021/04/25 11:50:38;;;;;;;8.00;7.50;;;44.80;18.90;;;;;;5013602;28;20459;-71
2021/04/25 11:53:04;;;;;;;7.73;7.23;;;41.60;19.20;;;;;;5010443;28;20430;-71
2021/04/25 11:55:31;;;;;;;8.47;7.77;;;39.10;19.90;;;;;;4999697;28;20444;-70
2021/04/25 11:57:57;;;;;;;7.63;7.13;;;37.50;21.10;;;;;;5006412;28;20849;-74
2021/04/25 12:00:33;;;;;;;7.33;6.83;;;35.70;21.40;;;;;;5009542;28;20468;-69
2021/04/25 12:03:01;;;;;;;7.93;7.37;;;34.50;22.10;;;;;;5004682;28;20487;-69
2021/04/25 12:05:39;;;;;;;8.27;7.67;;;34.20;22.60;;;;;;5007221;28;20503;-69
2021/04/25 12:08:06;;;;;;;8.60;8.00;;;34.90;22.80;;;;;;5004537;28;20453;-68
2021/04/25 12:10:35;;;;;;;8.40;7.80;;;36.60;22.30;;;;;;5007551;28;20444;-68
2021/04/25 12:13:09;;;;;;;7.83;7.43;;;37.40;21.90;;;;;;5011031;28;20559;-68
2021/04/25 12:16:07;;;;;;;8.87;8.10;;;37.00;21.70;;;;;;5004054;28;20412;-69
2021/04/25 12:18:41;;;;;;;9.20;8.40;;;36.20;22.00;;;;;;5006301;28;20966;-69
2021/04/25 12:21:09;;;;;;;9.37;8.47;;;37.40;22.20;;;;;;5003944;28;20426;-72
2021/04/25 12:24:01;;;;;;;7.37;6.77;;;38.80;21.60;;;;;;5004801;28;21183;-72
2021/04/25 12:26:27;;;;;;;7.57;6.97;;;39.60;21.00;;;;;;5012708;28;20866;-69
2021/04/25 12:28:56;;;;;;;8.57;7.97;;;38.20;20.50;;;;;;5000832;28;20512;-68
2021/04/25 12:31:39;;;;;;;7.60;7.10;;;35.70;21.20;;;;;;5001912;28;20194;-65
2021/04/25 12:34:06;;;;;;;8.20;7.70;;;33.40;22.30;;;;;;5003639;28;20474;-69
2021/04/25 12:36:32;;;;;;;8.00;7.30;;;32.10;23.00;;;;;;5014385;28;20454;-69
2021/04/25 12:39:02;;;;;;;7.90;7.40;;;32.40;23.60;;;;;;5008289;28;20816;-69
2021/04/25 12:41:57;;;;;;;9.00;8.30;;;32.70;23.50;;;;;;5021350;28;20263;-69
2021/04/25 12:44:36;;;;;;;8.23;7.60;;;32.30;23.90;;;;;;5021128;28;20436;-69
2021/04/25 12:47:02;;;;;;;8.30;7.53;;;31.10;24.00;;;;;;5011907;28;20447;-68
2021/04/25 12:49:43;;;;;;;7.73;7.10;;;29.90;24.60;;;;;;5008786;28;20436;-69